TimeMST,TemperatureF,Dew PointF,Humidity,Sea Level PressureIn,VisibilityMPH,Wind Direction,Wind SpeedMPH,Gust SpeedMPH,PrecipitationIn,Events,Conditions,WindDirDegrees,DateUTC
12:15 AM,19.4,14.0,80,30.17,10.0,NW,12.7,-,N/A,,Clear,310,2013-03-08 07:15:00
12:35 AM,17.6,12.2,79,30.17,10.0,NW,12.7,-,N/A,,Clear,320,2013-03-08 07:35:00
12:55 AM,17.6,12.2,79,30.17,10.0,NW,9.2,-,N/A,,Clear,320,2013-03-08 07:55:00
1:35 AM,17.6,12.2,79,30.18,10.0,Calm,Calm,-,N/A,,Clear,0,2013-03-08 08:35:00
1:55 AM,17.6,14.0,86,30.19,10.0,SSE,3.5,-,N/A,,Clear,150,2013-03-08 08:55:00
2:16 AM,15.8,10.4,79,30.18,10.0,Calm,Calm,-,N/A,,Clear,0,2013-03-08 09:16:00
2:35 AM,15.8,10.4,79,30.18,9.0,SSW,4.6,-,N/A,,Clear,210,2013-03-08 09:35:00
2:55 AM,14.0,10.4,86,30.18,10.0,WSW,3.5,-,N/A,,Clear,250,2013-03-08 09:55:00
3:15 AM,14.0,10.4,86,30.18,10.0,West,3.5,-,N/A,,Clear,260,2013-03-08 10:15:00
3:35 AM,14.0,10.4,86,30.18,10.0,Calm,Calm,-,N/A,,Clear,0,2013-03-08 10:35:00
3:55 AM,14.0,10.4,86,30.18,10.0,WNW,5.8,-,N/A,,Clear,290,2013-03-08 10:55:00
4:15 AM,14.0,10.4,86,30.18,10.0,NW,3.5,-,N/A,,Clear,310,2013-03-08 11:15:00
4:55 AM,15.8,12.2,86,30.19,10.0,West,3.5,-,N/A,,Clear,270,2013-03-08 11:55:00
5:35 AM,12.2,10.4,92,30.17,10.0,NNW,6.9,-,N/A,,Clear,330,2013-03-08 12:35:00
5:55 AM,14.0,10.4,86,30.17,9.0,NW,8.1,-,N/A,,Mostly Cloudy,320,2013-03-08 12:55:00
6:15 AM,15.8,10.4,79,30.17,9.0,NW,4.6,-,N/A,,Mostly Cloudy,320,2013-03-08 13:15:00
6:35 AM,15.8,12.2,86,30.17,10.0,North,5.8,-,N/A,,Scattered Clouds,350,2013-03-08 13:35:00
6:55 AM,17.6,12.2,79,30.17,9.0,NNE,5.8,-,N/A,,Mostly Cloudy,20,2013-03-08 13:55:00
7:15 AM,17.6,10.4,73,30.17,9.0,NE,4.6,-,N/A,,Overcast,40,2013-03-08 14:15:00
7:35 AM,17.6,12.2,79,30.17,9.0,North,4.6,-,N/A,,Overcast,10,2013-03-08 14:35:00
8:15 AM,17.6,12.2,79,30.18,8.0,Calm,Calm,-,N/A,,Mostly Cloudy,0,2013-03-08 15:15:00
8:35 AM,17.6,12.2,79,30.18,8.0,NNE,4.6,-,N/A,,Mostly Cloudy,30,2013-03-08 15:35:00
8:55 AM,17.6,12.2,79,30.18,8.0,NNE,3.5,-,N/A,,Overcast,20,2013-03-08 15:55:00
9:15 AM,19.4,14.0,80,30.17,8.0,NNE,4.6,-,N/A,,Overcast,30,2013-03-08 16:15:00
9:35 AM,19.4,12.2,74,30.16,8.0,NNE,6.9,-,N/A,,Mostly Cloudy,30,2013-03-08 16:35:00
9:55 AM,19.4,12.2,74,30.16,9.0,North,4.6,-,N/A,,Mostly Cloudy,10,2013-03-08 16:55:00
10:15 AM,19.4,12.2,74,30.16,9.0,NE,5.8,-,N/A,,Overcast,40,2013-03-08 17:15:00
10:35 AM,21.2,15.8,80,30.15,8.0,NE,5.8,-,N/A,,Mostly Cloudy,50,2013-03-08 17:35:00
10:55 AM,21.2,15.8,80,30.15,7.0,NNE,4.6,-,N/A,,Mostly Cloudy,30,2013-03-08 17:55:00
11:15 AM,21.2,15.8,80,30.15,7.0,NE,6.9,-,N/A,,Overcast,40,2013-03-08 18:15:00
11:35 AM,24.8,17.6,74,30.15,8.0,East,4.6,-,N/A,,Overcast,90,2013-03-08 18:35:00
11:55 AM,24.8,17.6,74,30.15,8.0,East,5.8,-,N/A,,Overcast,100,2013-03-08 18:55:00
12:15 PM,26.6,17.6,69,30.14,10.0,East,5.8,-,N/A,,Overcast,90,2013-03-08 19:15:00
12:55 PM,26.6,17.6,69,30.12,10.0,NE,8.1,-,N/A,,Overcast,40,2013-03-08 19:55:00
1:15 PM,26.6,17.6,69,30.10,10.0,NE,6.9,-,N/A,,Overcast,40,2013-03-08 20:15:00
1:35 PM,26.6,19.4,74,30.09,10.0,NE,9.2,-,N/A,,Overcast,40,2013-03-08 20:35:00
1:55 PM,26.6,19.4,74,30.08,10.0,NNE,9.2,-,N/A,,Overcast,20,2013-03-08 20:55:00
2:35 PM,26.6,19.4,74,30.07,10.0,NNE,8.1,-,N/A,,Overcast,20,2013-03-08 21:35:00
2:55 PM,28.4,19.4,69,30.07,10.0,NNE,6.9,-,N/A,,Overcast,30,2013-03-08 21:55:00
3:15 PM,28.4,19.4,69,30.06,10.0,NNE,8.1,-,N/A,,Overcast,30,2013-03-08 22:15:00
3:35 PM,26.6,19.4,74,30.05,3.0,NNE,9.2,-,N/A,,Overcast,30,2013-03-08 22:35:00
3:55 PM,26.6,21.2,80,30.04,2.0,NNE,8.1,-,N/A,,Overcast,30,2013-03-08 22:55:00
4:15 PM,26.6,21.2,80,30.04,1.8,NNE,8.1,-,N/A,,Overcast,30,2013-03-08 23:15:00
4:35 PM,26.6,23.0,86,30.03,2.0,NE,6.9,-,N/A,,Overcast,40,2013-03-08 23:35:00
5:15 PM,26.6,23.0,86,30.02,1.8,North,8.1,-,N/A,,Overcast,10,2013-03-09 00:15:00
5:35 PM,26.6,23.0,86,30.02,2.5,NNE,6.9,-,N/A,,Overcast,20,2013-03-09 00:35:00
5:55 PM,26.6,24.8,93,30.02,4.0,North,5.8,-,N/A,,Overcast,10,2013-03-09 00:55:00
6:15 PM,26.6,24.8,93,30.02,5.0,North,8.1,-,N/A,,Overcast,10,2013-03-09 01:15:00
6:35 PM,26.6,24.8,93,30.01,5.0,NNE,9.2,-,N/A,,Overcast,20,2013-03-09 01:35:00
6:55 PM,26.6,24.8,93,30.01,5.0,NNE,6.9,-,N/A,,Overcast,20,2013-03-09 01:55:00
7:15 PM,26.6,24.8,93,30.02,5.0,North,5.8,-,N/A,,Overcast,10,2013-03-09 02:15:00
7:35 PM,28.4,24.8,86,30.02,5.0,NNE,5.8,-,N/A,,Overcast,20,2013-03-09 02:35:00
7:55 PM,28.4,24.8,86,30.02,5.0,North,4.6,-,N/A,,Overcast,10,2013-03-09 02:55:00
8:15 PM,28.4,24.8,86,30.02,5.0,NNE,4.6,-,N/A,,Overcast,20,2013-03-09 03:15:00
8:35 PM,28.4,24.8,86,30.02,4.0,NNE,3.5,-,N/A,,Overcast,20,2013-03-09 03:35:00
8:55 PM,28.4,24.8,86,30.02,4.0,Calm,Calm,-,N/A,,Overcast,0,2013-03-09 03:55:00
9:15 PM,26.6,24.8,93,30.01,4.0,Calm,Calm,-,N/A,,Overcast,0,2013-03-09 04:15:00
9:35 PM,26.6,24.8,93,30.01,4.0,Calm,Calm,-,N/A,,Overcast,0,2013-03-09 04:35:00
9:55 PM,26.6,24.8,93,30.01,4.0,Calm,Calm,-,N/A,,Overcast,0,2013-03-09 04:55:00
10:35 PM,30.2,26.6,86,29.99,3.0,ESE,3.5,-,N/A,,Overcast,110,2013-03-09 05:35:00
10:55 PM,28.4,26.6,93,29.98,4.0,Calm,Calm,-,N/A,,Overcast,0,2013-03-09 05:55:00
11:15 PM,28.4,24.8,86,29.98,3.0,West,4.6,-,N/A,,Overcast,260,2013-03-09 06:15:00
11:35 PM,28.4,24.8,86,29.98,4.0,Calm,Calm,-,N/A,,Overcast,0,2013-03-09 06:35:00
11:55 PM,28.4,26.6,93,29.97,4.0,Calm,Calm,-,N/A,,Overcast,0,2013-03-09 06:55:00